Time;durP1;ratioP1;P1;durP2;ratioP2;P2;SDS_P1;SDS_P2;PMS_P1;PMS_P2;Temp;Humidity;BMP_temperature;BMP_pressure;BME280_temperature;BME280_humidity;BME280_pressure;Samples;Min_cycle;Max_cycle;Signal;HPM_P1;HPM_P2
2022/12/07 00:01:17;;;;;;;33.83;18.45;;;;;;;6.89;72.54;94616.72;4172715;28;20053;-56
2022/12/07 00:03:37;;;;;;;36.20;19.73;;;;;;;6.88;72.55;94621.13;4171886;28;20418;-55
2022/12/07 00:05:39;;;;;;;35.13;19.90;;;;;;;6.88;73.03;94615.91;4157716;28;20111;-53
2022/12/07 00:07:41;;;;;;;37.35;20.90;;;;;;;6.87;72.96;94619.44;4175063;28;20045;-58
2022/12/07 00:09:42;;;;;;;43.78;21.05;;;;;;;6.94;72.32;94610.13;4178593;28;20404;-56
2022/12/07 00:11:49;;;;;;;38.83;20.13;;;;;;;6.95;72.77;94614.38;4157524;28;20084;-58
2022/12/07 00:13:57;;;;;;;36.88;19.23;;;;;;;7.00;72.48;94621.78;4155932;28;20805;-53
2022/12/07 00:16:04;;;;;;;35.42;19.42;;;;;;;7.03;72.60;94613.66;4149522;28;20137;-58
2022/12/07 00:18:05;;;;;;;37.58;21.25;;;;;;;7.09;72.32;94609.69;4162246;28;20060;-55
2022/12/07 00:20:07;;;;;;;39.40;20.70;;;;;;;7.09;72.50;94601.88;4163311;28;20152;-56
2022/12/07 00:22:09;;;;;;;35.30;19.45;;;;;;;7.10;72.32;94603.53;4175689;28;20139;-56
2022/12/07 00:24:12;;;;;;;37.90;20.73;;;;;;;7.04;72.00;94606.69;4178463;28;20569;-57
2022/12/07 00:26:18;;;;;;;45.30;23.85;;;;;;;7.06;72.32;94612.59;4172317;28;20054;-57
2022/12/07 00:28:20;;;;;;;42.03;24.23;;;;;;;7.03;72.68;94612.84;4172124;28;20134;-61
2022/12/07 00:30:22;;;;;;;40.70;23.38;;;;;;;7.06;72.52;94607.38;4178325;28;20110;-54
2022/12/07 00:32:24;;;;;;;43.17;23.15;;;;;;;7.10;72.45;94619.16;4178612;28;20068;-56
2022/12/07 00:34:25;;;;;;;40.40;22.55;;;;;;;7.14;72.28;94620.50;4177434;28;20789;-56
2022/12/07 00:36:27;;;;;;;44.63;23.80;;;;;;;7.15;72.21;94606.53;4169095;28;20228;-60
2022/12/07 00:38:30;;;;;;;42.60;23.90;;;;;;;7.16;72.35;94615.97;4162446;28;20164;-55
2022/12/07 00:40:32;;;;;;;41.80;23.27;;;;;;;7.13;72.65;94618.88;4163103;28;20528;-58
2022/12/07 00:42:33;;;;;;;45.35;23.45;;;;;;;7.15;72.43;94617.78;4159892;28;20132;-52
2022/12/07 00:44:35;;;;;;;39.38;22.58;;;;;;;7.03;72.03;94620.66;4174380;28;20562;-54
2022/12/07 00:46:37;;;;;;;48.58;21.83;;;;;;;6.90;72.96;94619.16;4153571;28;20065;-57
2022/12/07 00:48:39;;;;;;;41.80;22.25;;;;;;;6.81;73.25;94608.78;4161514;28;20567;-52
2022/12/07 00:50:41;;;;;;;36.95;21.27;;;;;;;6.82;73.76;94613.00;4146293;28;20050;-55
2022/12/07 00:52:42;;;;;;;34.60;19.80;;;;;;;6.88;73.05;94615.06;4158184;28;20049;-54
2022/12/07 00:54:44;;;;;;;41.67;20.90;;;;;;;6.82;73.00;94610.41;4159591;28;20053;-52
2022/12/07 00:56:46;;;;;;;37.90;19.65;;;;;;;6.78;73.13;94609.06;4156657;28;20057;-56
2022/12/07 00:58:55;;;;;;;34.70;18.75;;;;;;;6.75;73.37;94607.53;4155228;28;20041;-59
2022/12/07 01:01:00;;;;;;;34.72;17.85;;;;;;;6.76;73.69;94611.78;4146586;28;20184;-54
2022/12/07 01:03:03;;;;;;;34.85;19.45;;;;;;;6.74;73.56;94611.09;4155413;28;20045;-56
2022/12/07 01:05:06;;;;;;;34.17;17.70;;;;;;;6.77;73.82;94613.44;4153716;28;20068;-55
2022/12/07 01:07:08;;;;;;;39.25;21.17;;;;;;;6.80;73.34;94613.16;4161494;28;20115;-54
2022/12/07 01:09:09;;;;;;;44.97;24.52;;;;;;;6.79;73.59;94608.91;4178194;28;20463;-58
2022/12/07 01:11:14;;;;;;;45.95;25.67;;;;;;;6.81;73.29;94609.59;4176265;28;20065;-55
2022/12/07 01:13:16;;;;;;;43.95;25.23;;;;;;;6.82;73.38;94605.19;4163850;28;20045;-54
2022/12/07 01:15:17;;;;;;;47.08;25.30;;;;;;;6.83;73.51;94599.03;4176593;28;20114;-55
2022/12/07 01:17:19;;;;;;;47.63;26.45;;;;;;;6.85;73.73;94608.34;4168887;28;20487;-56
2022/12/07 01:19:20;;;;;;;45.85;24.95;;;;;;;6.89;73.26;94596.69;4174705;28;20537;-56
2022/12/07 01:21:34;;;;;;;40.97;23.80;;;;;;;6.91;73.33;94596.56;4177740;28;20049;-51
2022/12/07 01:23:36;;;;;;;44.05;24.70;;;;;;;6.94;73.13;94593.69;4177482;28;20732;-55
2022/12/07 01:25:38;;;;;;;40.92;24.00;;;;;;;6.94;73.48;94594.50;4177320;28;20045;-54
2022/12/07 01:27:39;;;;;;;44.95;24.80;;;;;;;6.97;72.98;94588.22;4177284;28;20114;-53
2022/12/07 01:29:41;;;;;;;43.10;24.13;;;;;;;6.98;72.99;94587.22;4163554;28;20045;-58
2022/12/07 01:31:42;;;;;;;43.28;24.70;;;;;;;6.94;73.24;94589.28;4145081;28;20081;-56
2022/12/07 01:33:47;;;;;;;42.83;25.85;;;;;;;6.91;73.37;94589.56;4157993;28;20053;-54
2022/12/07 01:35:49;;;;;;;42.45;23.20;;;;;;;6.89;73.13;94588.06;4148948;28;20474;-54
2022/12/07 01:37:52;;;;;;;40.42;23.77;;;;;;;6.80;73.55;94588.88;4165963;28;20045;-58
2022/12/07 01:39:53;;;;;;;44.22;22.55;;;;;;;6.38;74.57;94592.59;4160567;28;20050;-57
2022/12/07 01:41:55;;;;;;;45.20;24.15;;;;;;;6.22;75.28;94585.34;4147099;28;20041;-56
2022/12/07 01:44:31;;;;;;;40.80;23.42;;;;;;;6.22;75.88;94598.34;4148085;28;20064;-55
2022/12/07 01:46:33;;;;;;;39.03;23.23;;;;;;;6.30;75.91;94598.50;4157766;28;20908;-54
2022/12/07 01:48:38;;;;;;;37.60;23.33;;;;;;;6.31;75.46;94592.31;4173864;28;20049;-54
2022/12/07 01:50:42;;;;;;;40.35;23.05;;;;;;;6.32;76.02;94594.00;4144853;28;20560;-59
2022/12/07 01:52:45;;;;;;;38.65;22.85;;;;;;;6.37;75.80;94585.78;4148056;28;20053;-56
2022/12/07 01:54:49;;;;;;;41.15;23.38;;;;;;;6.44;75.55;94592.06;4165723;28;20533;-55
2022/12/07 01:56:54;;;;;;;48.00;23.48;;;;;;;6.55;75.15;94580.69;4175655;28;20190;-54
2022/12/07 01:58:57;;;;;;;42.00;22.33;;;;;;;6.61;74.31;94581.94;4174261;28;20063;-56
2022/12/07 02:00:59;;;;;;;45.58;23.00;;;;;;;6.59;74.89;94568.25;4175583;28;20120;-54
2022/12/07 02:03:11;;;;;;;45.22;22.25;;;;;;;6.61;74.98;94572.34;4173839;28;20061;-56
2022/12/07 02:05:13;;;;;;;44.17;23.50;;;;;;;6.64;74.95;94564.25;4155442;28;20531;-58
2022/12/07 02:07:15;;;;;;;39.13;21.88;;;;;;;6.69;74.89;94562.06;4159298;28;20482;-51
2022/12/07 02:09:16;;;;;;;38.97;22.10;;;;;;;6.70;74.25;94568.91;4155133;28;20053;-58
2022/12/07 02:11:18;;;;;;;39.05;22.10;;;;;;;6.71;74.33;94567.97;4171078;28;20780;-55
2022/12/07 02:13:25;;;;;;;40.00;21.88;;;;;;;6.20;75.77;94573.44;4144287;28;20073;-54
2022/12/07 02:15:53;;;;;;;45.55;22.38;;;;;;;5.75;77.44;94579.88;4164448;28;20049;-54
2022/12/07 02:18:05;;;;;;;42.75;22.30;;;;;;;5.81;78.17;94586.31;4154151;28;20049;-54
2022/12/07 02:20:45;;;;;;;38.88;21.33;;;;;;;5.98;77.76;94575.31;4170372;28;20049;-54
2022/12/07 02:23:14;;;;;;;41.28;22.25;;;;;;;6.15;77.22;94571.22;4148881;28;20076;-55
2022/12/07 02:25:50;;;;;;;36.38;20.08;;;;;;;6.28;76.31;94568.34;4171933;28;20044;-53
2022/12/07 02:28:02;;;;;;;33.28;20.73;;;;;;;6.41;75.86;94557.69;4155763;28;20144;-57
2022/12/07 02:30:08;;;;;;;40.78;20.35;;;;;;;6.51;75.73;94561.91;4173683;28;20108;-53
2022/12/07 02:32:22;;;;;;;40.65;22.67;;;;;;;6.61;75.13;94559.31;4157446;28;20049;-57
2022/12/07 02:34:48;;;;;;;37.13;21.08;;;;;;;6.67;74.76;94555.38;4159011;28;20053;-54
2022/12/07 02:36:54;;;;;;;35.13;21.60;;;;;;;6.72;74.50;94558.34;4164273;28;20555;-56
2022/12/07 02:39:04;;;;;;;39.35;21.17;;;;;;;6.78;74.29;94568.22;4167099;28;20051;-57
2022/12/07 02:41:16;;;;;;;36.85;21.08;;;;;;;6.79;73.95;94563.81;4170470;28;20424;-55
2022/12/07 02:43:54;;;;;;;41.08;21.25;;;;;;;6.83;73.60;94560.00;4156446;28;20081;-56
2022/12/07 02:46:00;;;;;;;36.72;21.40;;;;;;;6.79;73.98;94556.81;4142639;28;20048;-53
2022/12/07 02:48:02;;;;;;;36.05;21.55;;;;;;;6.82;74.12;94561.78;4150844;28;20054;-54
2022/12/07 02:50:05;;;;;;;33.83;19.80;;;;;;;6.80;73.48;94555.88;4146792;28;20074;-53
2022/12/07 02:52:07;;;;;;;37.45;21.65;;;;;;;6.80;73.50;94550.69;4150255;28;20057;-55
2022/12/07 02:54:17;;;;;;;34.97;20.60;;;;;;;6.79;73.52;94549.03;4158205;28;20061;-55
2022/12/07 02:56:38;;;;;;;36.58;19.80;;;;;;;6.81;73.33;94549.69;4171330;28;20149;-55
2022/12/07 02:59:04;;;;;;;35.40;19.98;;;;;;;6.79;73.45;94541.22;4142721;28;20054;-55
2022/12/07 03:01:35;;;;;;;40.60;22.17;;;;;;;6.79;74.12;94543.00;4156807;28;20081;-55
2022/12/07 03:03:37;;;;;;;36.40;20.95;;;;;;;6.78;73.94;94543.97;4152446;28;20052;-58
2022/12/07 03:05:42;;;;;;;32.35;20.08;;;;;;;6.77;74.19;94535.31;4152438;28;20050;-53
2022/12/07 03:08:17;;;;;;;37.92;19.85;;;;;;;6.80;73.85;94542.03;4150317;28;20058;-57
2022/12/07 03:10:27;;;;;;;37.45;20.70;;;;;;;6.79;73.82;94537.78;4158317;28;20093;-55
2022/12/07 03:12:42;;;;;;;37.88;20.58;;;;;;;6.78;73.77;94531.78;4154415;28;20429;-56
2022/12/07 03:14:46;;;;;;;;;;;;;;;6.75;73.54;94529.44;4151538;28;20475;-51
2022/12/07 03:17:26;;;;;;;37.35;19.85;;;;;;;6.69;74.44;94532.59;4156022;28;20389;-52
2022/12/07 03:19:30;;;;;;;38.03;20.25;;;;;;;6.65;74.51;94534.66;4164420;28;20482;-53
2022/12/07 03:21:37;;;;;;;35.55;20.00;;;;;;;6.60;74.03;94526.44;4155087;28;20058;-53
2022/12/07 03:23:41;;;;;;;36.22;21.17;;;;;;;6.57;74.50;94532.75;4145234;28;20050;-56
2022/12/07 03:25:47;;;;;;;34.88;19.33;;;;;;;6.63;74.36;94533.16;4145898;28;20643;-55
2022/12/07 03:27:58;;;;;;;34.85;20.80;;;;;;;6.65;74.17;94539.06;4146928;28;20518;-53
2022/12/07 03:30:10;;;;;;;36.55;21.27;;;;;;;6.65;74.64;94537.28;4148405;28;20462;-57
2022/12/07 03:32:16;;;;;;;35.33;20.60;;;;;;;6.65;74.61;94539.06;4154621;28;20605;-54
2022/12/07 03:34:24;;;;;;;36.30;20.58;;;;;;;6.66;74.57;94538.09;4158960;28;20477;-55
2022/12/07 03:36:36;;;;;;;35.97;21.25;;;;;;;6.65;74.46;94539.88;4147760;28;20113;-57
2022/12/07 03:38:46;;;;;;;39.20;20.60;;;;;;;6.66;74.22;94538.91;4154359;28;20099;-58
2022/12/07 03:40:55;;;;;;;35.83;21.13;;;;;;;6.62;74.42;94541.91;4161859;28;20488;-53
2022/12/07 03:42:59;;;;;;;38.47;21.27;;;;;;;6.58;74.62;94536.16;4147248;28;20482;-55
2022/12/07 03:45:02;;;;;;;45.55;21.33;;;;;;;6.61;74.59;94532.47;4143733;28;20050;-58
2022/12/07 03:47:36;;;;;;;36.97;20.80;;;;;;;6.64;74.70;94530.41;4158831;28;20084;-55
2022/12/07 03:49:45;;;;;;;36.95;19.70;;;;;;;6.43;74.60;94543.59;4177555;28;20103;-57
2022/12/07 03:52:02;;;;;;;32.80;20.08;;;;;;;6.06;75.77;94546.84;4170407;28;20050;-56
2022/12/07 03:54:15;;;;;;;32.45;19.13;;;;;;;5.52;78.04;94548.88;4150619;28;20053;-57
2022/12/07 03:56:17;;;;;;;54.58;32.40;;;;;;;5.18;80.37;94537.13;4149473;28;20143;-56
2022/12/07 03:58:20;;;;;;;62.83;33.00;;;;;;;5.18;80.45;94537.13;4169540;28;20056;-54
2022/12/07 04:00:23;;;;;;;39.65;21.23;;;;;;;5.21;80.60;94531.69;4153837;28;20133;-54
2022/12/07 04:02:27;;;;;;;40.25;22.77;;;;;;;5.40;80.78;94533.53;4146098;28;20058;-54
2022/12/07 04:04:29;;;;;;;37.50;21.15;;;;;;;5.57;80.01;94538.13;4150192;28;20049;-52
2022/12/07 04:06:30;;;;;;;41.13;21.83;;;;;;;5.56;79.36;94526.06;4148350;28;20052;-55
2022/12/07 04:08:32;;;;;;;45.58;22.85;;;;;;;5.59;79.12;94528.38;4153014;28;20076;-55
2022/12/07 04:10:34;;;;;;;35.53;20.88;;;;;;;5.67;78.64;94525.94;4153978;28;20165;-56
2022/12/07 04:12:36;;;;;;;37.38;20.85;;;;;;;5.67;78.81;94532.94;4148001;28;20665;-55
2022/12/07 04:14:37;;;;;;;41.90;22.05;;;;;;;5.69;78.77;94526.63;4148587;28;20049;-57
2022/12/07 04:16:39;;;;;;;39.42;20.80;;;;;;;5.74;78.59;94514.09;4163135;28;20159;-57
2022/12/07 04:18:45;;;;;;;36.88;21.05;;;;;;;5.84;78.53;94526.25;4162656;28;20141;-52
2022/12/07 04:20:47;;;;;;;40.08;21.88;;;;;;;5.90;77.94;94525.72;4161862;28;20042;-55
2022/12/07 04:22:49;;;;;;;36.80;21.33;;;;;;;5.79;77.68;94525.84;4147855;28;20046;-57
2022/12/07 04:24:50;;;;;;;41.35;21.50;;;;;;;5.75;78.55;94528.69;4147282;28;20445;-56
2022/12/07 04:26:52;;;;;;;35.88;21.42;;;;;;;5.81;78.18;94526.50;4147714;28;20704;-53
2022/12/07 04:28:54;;;;;;;41.67;20.95;;;;;;;5.90;78.00;94528.31;4159526;28;20045;-56
2022/12/07 04:30:56;;;;;;;35.28;21.65;;;;;;;5.99;77.96;94534.53;4158349;28;20072;-54
2022/12/07 04:32:57;;;;;;;38.53;21.02;;;;;;;5.76;76.94;94537.31;4156269;28;20057;-57
2022/12/07 04:34:59;;;;;;;44.92;22.23;;;;;;;5.51;78.30;94541.25;4151804;28;20386;-53
2022/12/07 04:37:01;;;;;;;38.08;21.25;;;;;;;5.26;78.80;94538.13;4163690;28;20118;-55
2022/12/07 04:39:03;;;;;;;37.13;22.23;;;;;;;5.15;79.76;94533.03;4156885;28;20058;-55
2022/12/07 04:41:06;;;;;;;39.75;22.17;;;;;;;5.11;80.16;94534.25;4155510;28;20462;-55
2022/12/07 04:43:07;;;;;;;44.38;23.42;;;;;;;5.23;80.64;94541.00;4150517;28;20077;-53
2022/12/07 04:45:09;;;;;;;40.17;22.48;;;;;;;5.39;80.17;94544.88;4145698;28;20185;-53
2022/12/07 04:47:11;;;;;;;41.40;23.55;;;;;;;5.55;79.37;94542.63;4161443;28;20137;-56
2022/12/07 04:49:14;;;;;;;38.63;21.88;;;;;;;5.68;79.02;94542.38;4177872;28;20056;-55
2022/12/07 04:51:19;;;;;;;40.65;21.92;;;;;;;5.79;78.18;94544.06;4174346;28;20555;-55
2022/12/07 04:53:21;;;;;;;40.75;22.65;;;;;;;5.82;77.67;94536.78;4156323;28;20479;-57
2022/12/07 04:55:22;;;;;;;41.47;23.13;;;;;;;5.79;77.48;94539.66;4145625;28;20105;-56
2022/12/07 04:57:24;;;;;;;41.35;22.27;;;;;;;5.85;77.99;94533.94;4158825;28;20136;-59
2022/12/07 04:59:26;;;;;;;38.33;22.50;;;;;;;5.89;77.68;94542.28;4151406;28;20389;-57
2022/12/07 05:01:28;;;;;;;39.03;21.95;;;;;;;5.95;77.58;94542.59;4170898;28;20061;-54
2022/12/07 05:03:29;;;;;;;36.97;22.77;;;;;;;5.92;76.80;94545.44;4167378;28;20409;-54
2022/12/07 05:05:31;;;;;;;42.70;23.05;;;;;;;5.81;77.31;94539.50;4163842;28;20053;-54
2022/12/07 05:07:33;;;;;;;41.25;20.70;;;;;;;5.82;77.39;94541.16;4166462;28;20092;-58
2022/12/07 05:09:35;;;;;;;38.55;21.95;;;;;;;5.86;77.89;94545.16;4175397;28;20068;-58
2022/12/07 05:11:40;;;;;;;38.92;21.15;;;;;;;5.89;77.40;94550.06;4177976;28;20079;-55
2022/12/07 05:13:41;;;;;;;44.83;23.65;;;;;;;5.57;77.30;94545.06;4176512;28;20476;-59
2022/12/07 05:15:43;;;;;;;36.97;21.30;;;;;;;5.31;78.91;94541.19;4177497;28;20335;-53
2022/12/07 05:17:45;;;;;;;38.28;20.38;;;;;;;5.43;79.18;94549.69;4176246;28;20744;-55
2022/12/07 05:19:47;;;;;;;38.38;21.48;;;;;;;5.54;79.25;94541.78;4171035;28;20080;-54
2022/12/07 05:21:49;;;;;;;35.47;20.35;;;;;;;5.68;78.63;94543.19;4171102;28;20057;-54
2022/12/07 05:23:50;;;;;;;41.88;20.73;;;;;;;5.79;78.23;94544.06;4176065;28;20395;-52
2022/12/07 05:25:52;;;;;;;42.60;20.70;;;;;;;5.88;77.92;94540.63;4152037;28;20083;-57
2022/12/07 05:27:55;;;;;;;37.03;20.90;;;;;;;5.99;77.37;94539.72;4177338;28;20044;-53
2022/12/07 05:29:56;;;;;;;38.30;19.75;;;;;;;6.04;76.56;94543.56;4174752;28;20135;-58
2022/12/07 05:31:58;;;;;;;41.20;20.42;;;;;;;6.10;76.67;94543.00;4176674;28;20080;-56
2022/12/07 05:34:00;;;;;;;37.72;20.45;;;;;;;6.16;76.31;94541.66;4177025;28;20134;-55
2022/12/07 05:36:05;;;;;;;36.03;21.60;;;;;;;6.19;75.64;94533.56;4169576;28;20056;-60
2022/12/07 05:38:06;;;;;;;33.60;20.48;;;;;;;6.18;75.98;94538.94;4176701;28;20053;-53
2022/12/07 05:40:09;;;;;;;36.58;20.73;;;;;;;6.20;75.85;94537.03;4176024;28;20401;-57
2022/12/07 05:42:14;;;;;;;38.80;21.48;;;;;;;6.22;75.47;94529.91;4176982;28;20080;-54
2022/12/07 05:44:16;;;;;;;39.95;21.38;;;;;;;6.05;75.64;94534.00;4175620;28;20537;-51
2022/12/07 05:46:18;;;;;;;43.78;22.30;;;;;;;5.99;76.54;94524.94;4164367;28;20045;-52
2022/12/07 05:48:19;;;;;;;37.72;21.23;;;;;;;5.90;76.51;94515.34;4160971;28;20045;-55
2022/12/07 05:50:21;;;;;;;42.65;22.25;;;;;;;5.80;77.00;94524.88;4146688;28;20112;-53
2022/12/07 05:52:23;;;;;;;45.10;24.85;;;;;;;5.75;77.10;94523.50;4156223;28;20053;-55
2022/12/07 05:54:24;;;;;;;38.47;21.92;;;;;;;5.71;77.89;94522.13;4158494;28;20049;-56
2022/12/07 05:56:26;;;;;;;41.17;22.15;;;;;;;5.75;77.95;94525.28;4143294;28;20053;-58
2022/12/07 06:00:49;;;;;;;43.83;21.58;;;;;;;5.89;77.32;94526.66;4145955;28;20077;-56
2022/12/07 06:02:52;;;;;;;39.92;22.75;;;;;;;5.84;77.15;94523.66;4149949;28;20041;-56
2022/12/07 06:04:53;;;;;;;47.63;21.27;;;;;;;5.71;77.66;94532.53;4157447;28;20045;-53
2022/12/07 06:06:55;;;;;;;38.97;22.08;;;;;;;5.54;78.09;94535.75;4177125;28;20049;-57
2022/12/07 06:08:57;;;;;;;41.47;21.33;;;;;;;5.53;78.83;94527.16;4176860;28;20049;-56
2022/12/07 06:13:19;;;;;;;41.75;22.42;;;;;;;5.69;78.44;94531.84;4176827;28;20080;-56
2022/12/07 06:15:22;;;;;;;42.97;21.25;;;;;;;5.75;77.91;94533.91;4151137;28;20072;-52
2022/12/07 06:17:24;;;;;;;42.47;22.48;;;;;;;5.69;78.03;94536.22;4170831;28;20413;-51
2022/12/07 06:19:26;;;;;;;36.10;20.85;;;;;;;5.65;77.77;94533.06;4176786;28;20088;-58
2022/12/07 06:21:28;;;;;;;46.28;24.42;;;;;;;5.65;77.62;94542.63;4177137;28;20099;-58
2022/12/07 06:23:29;;;;;;;47.38;24.30;;;;;;;5.68;78.27;94535.41;4176336;28;20457;-55
2022/12/07 06:25:31;;;;;;;40.63;23.58;;;;;;;5.73;78.33;94541.00;4175484;28;20477;-53
2022/12/07 06:27:33;;;;;;;45.72;23.90;;;;;;;5.80;78.00;94541.28;4164804;28;20049;-57
2022/12/07 06:29:34;;;;;;;39.70;22.42;;;;;;;5.85;77.88;94540.88;4175064;28;20405;-56
2022/12/07 06:31:36;;;;;;;43.00;23.40;;;;;;;5.88;77.74;94536.25;4176987;28;20409;-55
2022/12/07 06:33:38;;;;;;;45.17;23.52;;;;;;;5.96;77.36;94540.81;4175987;28;20053;-55
2022/12/07 06:35:39;;;;;;;44.60;23.92;;;;;;;6.06;77.38;94540.81;4171680;28;20045;-58
2022/12/07 06:37:41;;;;;;;44.10;23.58;;;;;;;6.15;76.57;94540.84;4168826;28;20091;-59
2022/12/07 06:39:43;;;;;;;42.70;23.30;;;;;;;6.22;76.36;94540.31;4164316;28;20454;-58
2022/12/07 06:41:44;;;;;;;41.45;23.42;;;;;;;6.27;75.90;94538.91;4177043;28;20481;-57
2022/12/07 06:43:46;;;;;;;43.50;24.77;;;;;;;6.40;76.02;94553.44;4178573;28;20497;-58
2022/12/07 06:45:56;;;;;;;42.63;23.65;;;;;;;6.48;75.38;94549.19;4175432;28;20111;-55
2022/12/07 06:47:57;;;;;;;41.13;23.42;;;;;;;6.55;74.89;94558.09;4156102;28;20782;-55
2022/12/07 06:50:00;;;;;;;46.08;23.92;;;;;;;6.56;74.52;94551.94;4169970;28;20049;-56
2022/12/07 06:52:05;;;;;;;41.13;23.58;;;;;;;6.58;74.80;94541.38;4171126;28;20045;-56
2022/12/07 06:54:08;;;;;;;48.55;25.10;;;;;;;6.56;74.57;94548.53;4150812;28;20050;-56
2022/12/07 06:56:10;;;;;;;47.92;25.55;;;;;;;6.28;74.85;94551.00;4179385;28;20048;-55
2022/12/07 06:58:11;;;;;;;52.53;24.88;;;;;;;6.11;76.33;94557.69;4179904;28;20129;-57
2022/12/07 07:00:13;;;;;;;48.50;26.50;;;;;;;6.12;76.52;94559.31;4178245;28;20509;-57
2022/12/07 07:02:22;;;;;;;58.47;27.02;;;;;;;6.09;76.28;94556.19;4179593;28;20140;-55
2022/12/07 07:04:24;;;;;;;53.13;29.40;;;;;;;5.65;77.65;94563.44;4163271;28;20046;-51
2022/12/07 07:06:26;;;;;;;51.28;30.73;;;;;;;5.54;77.81;94564.34;4172921;28;20136;-57
2022/12/07 07:08:28;;;;;;;61.85;31.05;;;;;;;5.39;78.94;94561.28;4147232;28;20041;-57
2022/12/07 07:10:29;;;;;;;58.47;30.77;;;;;;;5.36;79.21;94560.75;4147708;28;20061;-56
2022/12/07 07:12:31;;;;;;;61.13;32.42;;;;;;;5.45;79.46;94558.16;4160316;28;20141;-56
2022/12/07 07:14:33;;;;;;;68.38;37.47;;;;;;;5.47;78.91;94565.84;4149542;28;20080;-54
2022/12/07 07:16:34;;;;;;;66.20;36.72;;;;;;;5.45;79.09;94560.75;4157411;28;20218;-53
2022/12/07 07:18:36;;;;;;;67.80;39.08;;;;;;;5.47;79.31;94565.84;4147471;28;20137;-54
2022/12/07 07:20:39;;;;;;;75.53;41.78;;;;;;;5.36;79.51;94563.34;4161315;28;20046;-53
2022/12/07 07:22:41;;;;;;;74.00;40.50;;;;;;;5.24;79.79;94555.63;4147928;28;20837;-54
2022/12/07 07:24:42;;;;;;;72.78;40.88;;;;;;;5.20;80.64;94556.81;4154445;28;20217;-48
2022/12/07 07:26:44;;;;;;;66.00;38.00;;;;;;;5.26;80.48;94556.31;4152852;28;20091;-50
2022/12/07 07:28:45;;;;;;;71.65;38.72;;;;;;;5.29;80.31;94557.81;4145752;28;20057;-53
2022/12/07 07:30:47;;;;;;;69.10;37.88;;;;;;;5.23;80.53;94564.38;4151341;28;20336;-52
2022/12/07 07:32:49;;;;;;;71.97;39.15;;;;;;;5.34;79.76;94566.88;4155525;28;20116;-50
2022/12/07 07:34:51;;;;;;;69.55;38.55;;;;;;;5.41;80.25;94568.94;4155848;28;20539;-50
2022/12/07 07:36:52;;;;;;;63.53;37.15;;;;;;;5.54;79.51;94561.75;4161908;28;20155;-51
2022/12/07 07:38:54;;;;;;;68.57;37.55;;;;;;;5.63;78.80;94567.94;4146926;28;20474;-52
2022/12/07 07:40:56;;;;;;;66.28;37.13;;;;;;;5.77;78.67;94559.78;4147092;28;20084;-54
2022/12/07 07:42:57;;;;;;;79.35;38.20;;;;;;;5.71;78.61;94568.91;4159122;28;20072;-53
2022/12/07 07:44:59;;;;;;;66.35;37.67;;;;;;;5.77;78.33;94571.97;4160932;28;20054;-53
2022/12/07 07:47:03;;;;;;;61.58;36.15;;;;;;;5.87;78.75;94562.38;4162905;28;20053;-52
2022/12/07 07:49:04;;;;;;;62.17;35.40;;;;;;;6.03;77.84;94561.91;4175373;28;20055;-54
2022/12/07 07:51:08;;;;;;;67.18;36.80;;;;;;;6.21;77.48;94559.47;4155412;28;20053;-55
2022/12/07 07:53:09;;;;;;;62.05;33.20;;;;;;;6.38;76.65;94568.38;4157982;28;20132;-55
2022/12/07 07:55:11;;;;;;;61.17;32.80;;;;;;;6.48;76.10;94557.00;4167337;28;20535;-51
2022/12/07 07:57:13;;;;;;;62.30;32.60;;;;;;;6.59;75.68;94552.63;4166288;28;20045;-53
2022/12/07 07:59:15;;;;;;;60.88;33.95;;;;;;;6.65;75.40;94557.28;4164278;28;20062;-51
2022/12/07 08:01:19;;;;;;;66.32;32.40;;;;;;;6.74;75.32;94556.44;4173360;28;20499;-51
2022/12/07 08:03:21;;;;;;;59.30;31.50;;;;;;;6.86;74.73;94555.34;4170433;28;20133;-53
2022/12/07 08:05:22;;;;;;;54.85;31.42;;;;;;;6.91;74.26;94552.31;4158157;28;20144;-53
2022/12/07 08:07:24;;;;;;;54.63;30.88;;;;;;;7.02;74.61;94556.53;4152461;28;20148;-56
2022/12/07 08:09:26;;;;;;;49.55;30.23;;;;;;;7.14;73.46;94552.78;4146272;28;20475;-52
2022/12/07 08:11:27;;;;;;;49.67;31.10;;;;;;;7.15;73.00;94550.03;4154303;28;20041;-53
2022/12/07 08:13:29;;;;;;;50.35;29.27;;;;;;;7.22;73.20;94549.47;4169969;28;20049;-53
2022/12/07 08:15:32;;;;;;;53.15;30.00;;;;;;;7.28;73.17;94552.31;4162101;28;20162;-54
2022/12/07 08:17:34;;;;;;;52.50;29.92;;;;;;;7.32;72.34;94552.88;4163222;28;20053;-54
2022/12/07 08:19:35;;;;;;;61.50;32.10;;;;;;;7.32;72.68;94550.28;4159419;28;20133;-55
2022/12/07 08:21:37;;;;;;;55.95;29.83;;;;;;;7.32;72.24;94555.47;4148143;28;20378;-54
2022/12/07 08:23:39;;;;;;;50.55;28.05;;;;;;;7.32;72.35;94551.09;4145251;28;20049;-54
2022/12/07 08:25:41;;;;;;;59.53;30.42;;;;;;;7.38;72.42;94547.09;4162133;28;20192;-54
2022/12/07 08:27:43;;;;;;;52.67;31.70;;;;;;;7.35;72.44;94544.75;4158718;28;20136;-51
2022/12/07 08:29:44;;;;;;;71.47;32.47;;;;;;;7.35;72.29;94550.78;4153608;28;20072;-54
2022/12/07 08:31:46;;;;;;;62.65;33.50;;;;;;;7.32;72.69;94552.88;4174463;28;20041;-58
2022/12/07 08:33:48;;;;;;;56.88;31.33;;;;;;;7.30;72.81;94560.81;4161910;28;20057;-51
2022/12/07 08:35:50;;;;;;;56.30;30.08;;;;;;;7.24;72.18;94557.97;4147493;28;20054;-52
2022/12/07 08:37:51;;;;;;;52.75;29.45;;;;;;;7.21;72.51;94553.88;4155857;28;20073;-53
2022/12/07 08:39:54;;;;;;;56.60;30.33;;;;;;;7.13;72.50;94558.97;4150129;28;20132;-54
2022/12/07 08:41:55;;;;;;;54.85;30.42;;;;;;;7.09;72.90;94544.56;4149942;28;20115;-51
2022/12/07 08:43:57;;;;;;;53.70;31.00;;;;;;;7.08;73.37;94553.38;4155274;28;20089;-50
2022/12/07 08:46:20;;;;;;;53.63;30.60;;;;;;;7.10;73.00;94536.63;4151992;28;20045;-54
2022/12/07 08:48:24;;;;;;;62.40;30.60;;;;;;;7.16;73.38;94535.22;4173122;28;20128;-54
2022/12/07 08:50:26;;;;;;;46.22;27.60;;;;;;;7.29;72.62;94542.72;4174440;28;20145;-50
2022/12/07 08:52:29;;;;;;;45.80;25.73;;;;;;;7.37;72.86;94537.63;4156275;28;20063;-52
2022/12/07 08:54:34;;;;;;;46.05;27.45;;;;;;;7.44;72.05;94543.88;4145372;28;20058;-52
2022/12/07 08:56:35;;;;;;;47.78;25.00;;;;;;;7.50;72.17;94529.47;4150722;28;20045;-54
2022/12/07 08:58:38;;;;;;;44.60;26.13;;;;;;;7.50;71.65;94532.06;4149744;28;20140;-50
2022/12/07 09:00:40;;;;;;;47.08;26.58;;;;;;;7.48;71.73;94534.81;4159085;28;20061;-53
2022/12/07 09:02:41;;;;;;;45.25;26.33;;;;;;;7.55;72.03;94530.69;4177888;28;20078;-54
2022/12/07 09:04:43;;;;;;;43.72;26.17;;;;;;;7.64;71.67;94520.38;4156044;28;20052;-54
2022/12/07 09:06:44;;;;;;;51.28;26.52;;;;;;;7.65;71.23;94517.59;4165942;28;20118;-51
2022/12/07 09:08:49;;;;;;;48.97;27.60;;;;;;;7.72;71.45;94516.06;4164086;28;20052;-53
2022/12/07 09:10:51;;;;;;;51.92;27.67;;;;;;;7.76;71.06;94522.59;4168814;28;20053;-56
2022/12/07 09:12:53;;;;;;;47.95;26.55;;;;;;;7.82;71.02;94515.19;4165459;28;20061;-52
2022/12/07 09:14:55;;;;;;;56.65;29.50;;;;;;;7.88;71.86;94515.41;4164386;28;20045;-54
2022/12/07 09:17:08;;;;;;;52.58;29.75;;;;;;;7.90;71.25;94508.25;4164020;28;20476;-55
2022/12/07 09:19:10;;;;;;;56.35;30.27;;;;;;;7.96;71.80;94517.28;4170304;28;20596;-53
2022/12/07 09:21:11;;;;;;;43.35;25.45;;;;;;;8.02;71.60;94513.25;4166474;28;20081;-54
2022/12/07 09:23:13;;;;;;;45.47;25.63;;;;;;;8.00;70.66;94514.25;4163093;28;20191;-53
2022/12/07 09:25:14;;;;;;;47.92;25.67;;;;;;;7.89;69.98;94516.22;4168244;28;20080;-54
2022/12/07 09:27:17;;;;;;;46.22;25.52;;;;;;;7.90;70.68;94516.09;4170793;28;20081;-54
2022/12/07 09:29:19;;;;;;;45.35;26.30;;;;;;;7.96;70.73;94512.88;4164278;28;20401;-52
2022/12/07 09:31:20;;;;;;;51.00;27.35;;;;;;;7.99;70.93;94502.16;4163887;28;20124;-56
2022/12/07 09:33:25;;;;;;;54.53;26.85;;;;;;;8.04;70.78;94496.47;4162959;28;20138;-53
2022/12/07 09:35:27;;;;;;;49.10;26.77;;;;;;;8.13;70.79;94492.16;4171364;28;20579;-55
2022/12/07 09:37:29;;;;;;;47.15;26.83;;;;;;;8.13;70.12;94493.00;4166123;28;20128;-50
2022/12/07 09:39:30;;;;;;;48.72;25.95;;;;;;;8.06;70.35;94491.94;4156270;28;20184;-53
2022/12/07 09:41:32;;;;;;;47.92;26.60;;;;;;;8.05;70.96;94485.09;4160692;28;20038;-52
2022/12/07 09:43:36;;;;;;;51.88;27.00;;;;;;;8.07;70.83;94485.75;4166695;28;20084;-54
2022/12/07 09:45:38;;;;;;;46.55;25.10;;;;;;;8.22;70.38;94486.06;4161060;28;20130;-53